This is the latest recevied weather packets stored in our database for station/object KM8V-8. If no packets are shown the sender has not sent any weather packets the latest 10 day(s).
| Time | Temp. | Humidity | Pressure | Rain* | Wind** | Luminosity | Snow |
|---|---|---|---|---|---|---|---|
| 1777820419 | 11.67° C | 49% | 1014.8 hPa | 0 mm | - | 721 W/m² | - |
| 1777818617 | 10.56° C | 51% | 1014.8 hPa | 0 mm | - | 638 W/m² | - |
| 1777817720 | 10° C | 51% | 1014.9 hPa | 0 mm | - | 598 W/m² | - |
| 1777817420 | 10° C | 52% | 1015.1 hPa | 0 mm | - | 581 W/m² | - |
| 1777817120 | 9.44° C | 51% | 1015.1 hPa | 0 mm | - | 567 W/m² | - |
| 1777814722 | 7.78° C | 56% | 1015.7 hPa | 0 mm | - | 443 W/m² | - |
| 1777812319 | 5.56° C | 67% | 1016.3 hPa | 0 mm | - | 209 W/m² | - |
| 1777810822 | 4.44° C | 74% | 1016.5 hPa | 0 mm | - | 244 W/m² | - |
| 1777810219 | 3.33° C | 77% | 1016.5 hPa | 0 mm | - | 203 W/m² | - |
| 1777808133 | 2.22° C | 83% | 1016.4 hPa | 0 mm | - | 73 W/m² | - |
| 1777807833 | 2.22° C | 83% | 1016.4 hPa | 0 mm | - | 53 W/m² | - |
| 1777807533 | 2.22° C | 83% | 1016.3 hPa | 0 mm | - | 43 W/m² | - |
| 1777806633 | 1.67° C | 84% | 1016.3 hPa | 0 mm | - | 36 W/m² | - |
| 1777803921 | 1.67° C | 84% | 1015.8 hPa | 0 mm | - | 6 W/m² | - |
| 1777803022 | 2.22° C | 84% | 1015.8 hPa | 0 mm | - | 1 W/m² | - |
| 1777802721 | 2.22° C | 84% | 1015.9 hPa | 0 mm | - | 0 W/m² | - |
| 1777802421 | 2.22° C | 84% | 1015.9 hPa | 0 mm | - | 0 W/m² | - |
| 1777802122 | 2.22° C | 84% | 1015.9 hPa | 0 mm | - | 0 W/m² | - |
| 1777801221 | 2.22° C | 85% | 1015.8 hPa | 0 mm | - | 0 W/m² | - |
| 1777800922 | 2.22° C | 85% | 1015.8 hPa | 0 mm | - | 0 W/m² | - |
| 1777800622 | 2.22° C | 86% | 1015.8 hPa | 0 mm | - | 0 W/m² | - |
| 1777800322 | 1.67° C | 87% | 1015.9 hPa | 0 mm | - | 0 W/m² | - |
| 1777800022 | 1.67° C | 88% | 1015.9 hPa | 0 mm | - | 0 W/m² | - |
| 1777799722 | 1.67° C | 89% | 1015.9 hPa | 0 mm | - | 0 W/m² | - |
| 1777799422 | 1.67° C | 89% | 1015.9 hPa | 0 mm | - | 0 W/m² | - |
* Rain latest hour (hover to see other rain measurements)
** Current wind speed in m/s (hover to see current wind gust speed)